• Join FlightAware (Why Join?)
  • Login
  • US Flag 
09:25AM EDT


 

Airport Tracker/Info


-or-


 

Live Flight TrackerFlight Track Log ✈ UCA3598 ✈ 16-Apr-2014 ✈ KIAD - KBGM

Flight Track Log - Related Links

Times and Time Zones

All times are in EDT time to prevent confusion due to time zone crossing. See the UCA3598 flight status page for this flight to view local times or setup timezone preferences in your user account.

Time Position Orientation Groundspeed Altitude Reporting Facility
EDT Latitude Longitude Course Direction KTS MPH feet Rate Location/Type
10:22PM 39.0000 -77.4667 North 167 192 3,100  Level Potomac TRACON
10:23PM 39.0500 -77.5000 333° Northwest 172 198 5,100 1,560 Climbing Potomac TRACON
10:24PM 39.0833 -77.5333 322° Northwest 189 217 6,300 1,380 Climbing Potomac TRACON
10:25PM 39.1333 -77.5500 346° North 189 217 7,900 1,380 Climbing Potomac TRACON
10:26PM 39.3844 -77.4500 North  Level FlightAware Approximate
10:26PM 39.1833 -77.5667 346° North 195 224 9,100  Level Potomac TRACON
10:27PM 39.0166 -77.4500 North  Level FlightAware Approximate
10:27PM 39.2333 -77.5667 360° North 201 231 10,500  Level Potomac TRACON
10:28PM 39.3000 -77.5500 11° North 202 232 12,000 1,200 Climbing Potomac TRACON
10:29PM 39.3500 -77.5333 14° North 207 238 12,900 600 Climbing Potomac TRACON
10:29PM 39.3878 -77.5250 10° North 233 268 13,000 60 Climbing Washington Center
10:30PM 39.4608 -77.5053 12° North 273 314 13,000  Level Washington Center
10:31PM 39.5406 -77.4833 12° North 279 321 13,100 720 Climbing Washington Center
10:33PM 39.6700 -77.4494 11° North 265 305 15,100 900 Climbing New York Center
10:34PM 39.7325 -77.4500 360° North 256 295 15,700 480 Climbing New York Center
10:35PM 39.8111 -77.4250 14° North 256 295 16,100 420 Climbing New York Center
10:36PM 39.8758 -77.3878 24° Northeast 277 319 16,600 720 Climbing New York Center
10:37PM 39.9508 -77.3489 22° Northeast 267 307 17,600 1,200 Climbing New York Center
10:38PM 40.0133 -77.3167 22° Northeast 262 302 19,000 540 Climbing New York Center
10:39PM 40.0883 -77.2775 22° Northeast 257 296 18,700  Descending New York Center
10:40PM 40.1508 -77.2428 23° Northeast 264 304 19,000 120 Climbing New York Center
10:41PM 40.2344 -77.1989 22° Northeast 280 322 19,000  Level New York Center
10:42PM 40.3031 -77.1644 21° North 286 329 19,000  Level New York Center
10:43PM 40.3889 -77.1178 22° Northeast 291 335 19,000  Level New York Center
10:44PM 40.4597 -77.0806 22° Northeast 301 346 19,000  Level New York Center
10:45PM 40.5456 -77.0339 22° Northeast 301 346 19,000  Level New York Center
10:46PM 40.6142 -76.9964 23° Northeast 301 346 19,000  Level New York Center
10:47PM 40.7000 -76.9494 23° Northeast 301 346 19,000  Level New York Center
10:48PM 40.7708 -76.9119 22° Northeast 301 346 19,000  Level New York Center
10:49PM 40.8567 -76.8647 23° Northeast 301 346 19,000 -60 Level New York Center
10:50PM 40.9272 -76.8269 22° Northeast 301 346 18,900 -420 Descending New York Center
10:51PM 41.0067 -76.7819 23° Northeast 301 346 18,200 -420 Descending New York Center
10:52PM 41.0903 -76.7369 22° Northeast 301 346 18,100 -420 Descending New York Center
10:53PM 41.1717 -76.6917 23° Northeast 306 352 17,400 -720 Descending New York Center
10:54PM 41.2553 -76.6439 23° Northeast 312 359 16,700 -780 Descending New York Center
10:55PM 41.3453 -76.5936 23° Northeast 312 359 15,900 -780 Descending New York Center
10:56PM 41.4203 -76.5531 22° Northeast 307 353 15,200 -420 Descending New York Center
10:57PM 41.4953 -76.5097 23° Northeast 301 346 15,100 -60 Descending New York Center
10:58PM 41.5594 -76.4736 23° Northeast 283 326 15,100 -720 Level New York Center
10:59PM 41.6342 -76.4328 22° Northeast 277 319 13,700 -1,500 Descending New York Center
11:00PM 41.7156 -76.3869 23° Northeast 277 319 12,100 -1,620 Descending New York Center
11:01PM 41.7844 -76.3372 28° Northeast 277 319 10,500 -1,500 Descending New York Center
11:02PM 41.8431 -76.2892 31° Northeast 277 319 9,100 -1,500 Descending New York Center
11:03PM 41.9058 -76.2358 32° Northeast 272 313 7,600 -1,620 Descending New York Center
11:04PM 41.9686 -76.1825 32° Northeast 252 290 5,900 -1,620 Descending New York Center
11:05PM 42.0250 -76.1367 31° Northeast 242 278 4,400 -1,020 Descending New York Center
11:06PM 42.0736 -76.0708 45° Northeast 237 273 3,900 -300 Descending New York Center
11:07PM 42.1036 -76.0089 57° Northeast 220 253 3,900 -360 Level New York Center
11:08PM 42.1267 -75.9578 59° Northeast 189 217 3,200 -600 Descending New York Center
11:09PM 42.1542 -75.9431 22° Northeast 117 135 2,700 -660 Descending New York Center
11:10PM 42.1850 -75.9567 342° North 101 116 2,000 -360 Descending New York Center
11:11PM 42.2083 -75.9417 25° Northeast 101 116 2,000 6,480 Level New York Center
11:12PM 42.2336 -75.9353 11° North 101 116 15,000 12,960 Climbing New York Center
11:14PM 42.2000 -75.9667 North  Level FlightAware Approximate
11:21PM 42.2084 -75.9796 North  Level Estimated